KSLC/SLC METAR and TAF weather

Enter ICAO airport designator
Station Type Date Time Source
KSLC METAR 2018/12/15 22:54 UTC NOAA

KSLC 152254Z 24006KT 4SM HZ FEW170 BKN210 03/M01 A3024 RMK AO2 SLP249 T00331011 $


Station Type Date Time Source
KSLC Decoded METAR 2018/12/15 22:54 UTC NOAA

SALT LAKE CITY INTERNATIONAL AIRPORT , UT, United States (KSLC) 40-47N 111-58W 1286M
Dec 15, 2018 - 05:54 PM EST / 2018.12.15 2254 UTC
Wind: from the WSW (240 degrees) at 7 MPH (6 KT):0
Visibility: 4 mile(s):0
Sky conditions: mostly cloudy
Weather: haze
Temperature: 37.9 F (3.3 C)
Dew Point: 30.0 F (-1.1 C)
Relative Humidity: 72%
Pressure (altimeter): 30.24 in. Hg (1024 hPa)
ob: KSLC 152254Z 24006KT 4SM HZ FEW170 BKN210 03/M01 A3024 RMK AO2 SLP249 T00331011
cycle: 23

Station Type Date Time Source
KSLC TAF 2018/12/15 21:36 UTC NOAA

TAF
AMD KSLC 152033Z 1521/1624 33006KT P6SM BKN180
FM160200 15005KT 5SM BR FEW120 SCT180


Example: see airport list